Terminal Aerodrome Forecast
Issued by NWS

Home | Current Version | Previous Version | Text Only | Print | Product List | Glossary On
Versions: 1 2 3 4 5 6 7 8 9 10 11 12 13 14 15 16 17 18 19 20 21 22 23 24 25 26 27 28 29 30 31 32 33
331
FTUS43 KDLH 131737
TAFHIB
TAF
KHIB 131737Z 1318/1418 36009KT 3SM -SN OVC018
     FM132100 36007KT P6SM VCSH OVC025
     FM140000 34005KT P6SM SCT015 OVC030
     FM141200 32005KT 5SM -SN OVC025=

USA.gov is the U.S. government's official web portal to all federal, state and local government web resources and services.